| time (UTC) | temp C | wind direction | speed KPH | gust KPH | rain 1hr cm | rain 24hr cm | rain mn cm | humidity % | barometer mb |
| 20260831150005 | 24 | 278 | 0.0 | 9.7 | 0.00 | 0.00 | 0.00 | 87 | 1008.7 |
| 20260831144546 | 25 | 268 | 0.0 | 6.4 | 0.00 | 0.00 | 0.00 | 87 | 1008.7 |
| 20260831143046 | 24 | 272 | 0.0 | 11.3 | 0.00 | 0.00 | 0.00 | 87 | 1008.5 |
| 20260831141526 | 23 | 284 | 4.8 | 11.3 | 0.00 | 0.00 | 0.00 | 85 | 1008.4 |
| 20260831140027 | 23 | 288 | 4.8 | 8.0 | 0.00 | 0.00 | 0.00 | 81 | 1008.2 |
| 20260831134506 | 22 | 238 | 6.4 | 11.3 | 0.00 | 0.00 | 0.00 | 76 | 1008.1 |
| 20260831133004 | 22 | 245 | 9.7 | 14.5 | 0.00 | 0.00 | 0.00 | 72 | 1008.1 |
| 20260831131546 | 22 | 260 | 6.4 | 11.3 | 0.00 | 0.00 | 0.00 | 70 | 1007.8 |
| 20260831130045 | 22 | 233 | 4.8 | 9.7 | 0.00 | 0.00 | 0.00 | 71 | 1007.8 |
| 20260831124524 | 22 | 217 | 8.0 | 12.9 | 0.00 | 0.00 | 0.00 | 71 | 1007.4 |
| 20260831123022 | 22 | 250 | 4.8 | 19.3 | 0.00 | 0.00 | 0.00 | 68 | 1007.3 |
| 20260831121507 | 21 | 224 | 8.0 | 12.9 | 0.00 | 0.00 | 0.00 | 59 | 1006.8 |
| 20260831120100 | -17 | 0.0 | 0.0 | 0.00 | 0.00 | 0.00 | 1006.9 | ||
| 20260831114556 | -17 | 0.0 | 0.0 | 0.00 | 0.00 | 0.00 | 1006.5 | ||
| 20260831113033 | -17 | 0.0 | 0.0 | 0.00 | 0.00 | 0.00 | 1006.5 | ||
| 20260831111532 | -17 | 0.0 | 0.0 | 0.00 | 0.00 | 0.00 | 1006.2 | ||
| 20260831110013 | -17 | 0.0 | 0.0 | 0.00 | 0.00 | 0.00 | 1006.2 | ||
| 20260831104509 | -17 | 0.0 | 0.0 | 0.00 | 0.00 | 0.00 | 1006.3 | ||
| 20260831103004 | -17 | 0.0 | 0.0 | 0.00 | 0.00 | 0.00 | 1006.2 | ||
| 20260831101603 | -17 | 0.0 | 0.0 | 0.00 | 0.00 | 0.00 | 1006.2 | ||
| 20260831100058 | 21 | 165 | 8.0 | 12.9 | 0.00 | 0.00 | 0.00 | 52 | 1006.1 |
| 20260831094557 | 21 | 181 | 8.0 | 11.3 | 0.00 | 0.00 | 0.00 | 53 | 1006.2 |
| 20260831093056 | 21 | 186 | 8.0 | 11.3 | 0.00 | 0.00 | 0.00 | 56 | 1006.2 |
| 20260831091607 | 21 | 198 | 6.4 | 11.3 | 0.00 | 0.00 | 0.00 | 55 | 1006.1 |
| 20260831090038 | 21 | 180 | 9.7 | 12.9 | 0.00 | 0.00 | 0.00 | 57 | 1006.2 |
| 20260831084536 | 21 | 187 | 8.0 | 12.9 | 0.00 | 0.00 | 0.00 | 57 | 1006.2 |
| 20260831083023 | 21 | 195 | 11.3 | 14.5 | 0.00 | 0.00 | 0.00 | 60 | 1005.9 |
| 20260831081516 | 21 | 189 | 8.0 | 12.9 | 0.00 | 0.00 | 0.00 | 63 | 1005.8 |
| 20260831080106 | 22 | 186 | 11.3 | 19.3 | 0.00 | 0.00 | 0.00 | 64 | 1005.8 |
| 20260831074557 | 22 | 174 | 11.3 | 19.3 | 0.00 | 0.00 | 0.00 | 62 | 1005.7 |
| 20260831073039 | 22 | 185 | 9.7 | 16.1 | 0.00 | 0.00 | 0.00 | 62 | 1005.9 |
| 20260831071537 | 22 | 181 | 9.7 | 19.3 | 0.00 | 0.00 | 0.00 | 60 | 1005.9 |
| 20260831070020 | 22 | 169 | 9.7 | 16.1 | 0.00 | 0.00 | 0.00 | 58 | 1006.1 |
| 20260831064518 | 21 | 183 | 9.7 | 14.5 | 0.00 | 0.00 | 0.00 | 58 | 1006.2 |
| 20260831063100 | 21 | 169 | 6.4 | 14.5 | 0.00 | 0.00 | 0.00 | 58 | 1006.2 |
| 20260831061559 | 21 | 132 | 8.0 | 12.9 | 0.00 | 0.00 | 0.00 | 54 | 1006.5 |
| 20260831060042 | 21 | 172 | 9.7 | 12.9 | 0.00 | 0.00 | 0.00 | 57 | 1006.5 |
| 20260831054539 | 21 | 140 | 6.4 | 11.3 | 0.00 | 0.00 | 0.00 | 57 | 1006.5 |
| 20260831053025 | 21 | 162 | 4.8 | 9.7 | 0.00 | 0.00 | 0.00 | 60 | 1006.6 |
| 20260831051520 | 21 | 125 | 3.2 | 9.7 | 0.00 | 0.00 | 0.00 | 62 | 1006.8 |
| 20260831050100 | 21 | 140 | 3.2 | 9.7 | 0.00 | 0.00 | 0.00 | 65 | 1006.8 |
| 20260831044558 | 21 | 150 | 3.2 | 8.0 | 0.00 | 0.00 | 0.00 | 69 | 1006.7 |
| 20260831043037 | 22 | 160 | 3.2 | 8.0 | 0.00 | 0.00 | 0.00 | 72 | 1006.7 |
| 20260831041548 | 22 | 197 | 4.8 | 11.3 | 0.00 | 0.00 | 0.00 | 76 | 1006.5 |
| 20260831040020 | 22 | 185 | 9.7 | 17.7 | 0.00 | 0.00 | 0.00 | 78 | 1006.4 |
| 20260831034516 | 22 | 174 | 9.7 | 19.3 | 0.00 | 0.00 | 0.00 | 79 | 1006.2 |
| 20260831033059 | 22 | 147 | 9.7 | 22.5 | 0.00 | 0.00 | 0.00 | 81 | 1006.4 |
| 20260831031609 | 22 | 166 | 11.3 | 22.5 | 0.00 | 0.00 | 0.00 | 78 | 1006.5 |
| 20260831030043 | 22 | 162 | 14.5 | 22.5 | 0.00 | 0.00 | 0.00 | 75 | 1006.4 |
| 20260831024550 | 22 | 150 | 11.3 | 19.3 | 0.00 | 0.00 | 0.00 | 77 | 1006.4 |
| 20260831023019 | 22 | 148 | 8.0 | 16.1 | 0.00 | 0.00 | 0.00 | 84 | 1006.6 |
| 20260831021515 | 23 | 160 | 6.4 | 16.1 | 0.00 | 0.00 | 0.00 | 87 | 1006.7 |
| 20260831020056 | 23 | 141 | 12.9 | 24.1 | 0.00 | 0.00 | 0.00 | 87 | 1006.6 |
| 20260831014554 | 23 | 125 | 11.3 | 22.5 | 0.00 | 0.00 | 0.00 | 87 | 1006.5 |
| 20260831013035 | 23 | 156 | 11.3 | 20.9 | 0.00 | 0.00 | 0.00 | 86 | 1006.4 |
| 20260831011531 | 24 | 163 | 12.9 | 25.7 | 0.00 | 0.00 | 0.00 | 85 | 1006.3 |
| 20260831010011 | 24 | 184 | 12.9 | 25.7 | 0.00 | 0.00 | 0.00 | 85 | 1006.1 |
| 20260831004508 | 25 | 168 | 11.3 | 24.1 | 0.00 | 0.00 | 0.00 | 83 | 1006.1 |
| 20260831003050 | 25 | 142 | 14.5 | 25.7 | 0.00 | 0.00 | 0.00 | 81 | 1006.1 |
| 20260831001546 | 26 | 187 | 12.9 | 24.1 | 0.00 | 0.00 | 0.00 | 83 | 1006.1 |
| 20260831000027 | 26 | 184 | 11.3 | 25.7 | 0.00 | 0.00 | 0.00 | 83 | 1006.0 |
| 20260830234537 | 26 | 162 | 17.7 | 29.0 | 0.00 | 0.00 | 0.00 | 81 | 1005.9 |
| 20260830233003 | 27 | 153 | 12.9 | 24.1 | 0.00 | 0.00 | 0.00 | 80 | 1005.7 |
| 20260830231601 | 27 | 161 | 14.5 | 25.7 | 0.00 | 0.00 | 0.00 | 78 | 1005.7 |
| 20260830230042 | 27 | 182 | 16.1 | 24.1 | 0.00 | 0.00 | 0.00 | 78 | 1005.7 |
| 20260830224548 | 28 | 164 | 14.5 | 22.5 | 0.00 | 0.00 | 0.00 | 77 | 1005.5 |
| 20260830223024 | 28 | 150 | 12.9 | 22.5 | 0.00 | 0.00 | 0.00 | 78 | 1005.5 |
| 20260830221529 | 28 | 176 | 12.9 | 22.5 | 0.00 | 0.00 | 0.00 | 77 | 1005.5 |
| 20260830220005 | 28 | 185 | 16.1 | 24.1 | 0.00 | 0.00 | 0.00 | 74 | 1005.2 |
| 20260830214505 | 28 | 187 | 17.7 | 25.7 | 0.00 | 0.00 | 0.00 | 74 | 1005.2 |
| 20260830213045 | 28 | 190 | 14.5 | 27.4 | 0.00 | 0.00 | 0.00 | 77 | 1005.4 |
| 20260830211543 | 28 | 131 | 14.5 | 27.4 | 0.00 | 0.00 | 0.00 | 76 | 1005.6 |
| 20260830210027 | 28 | 175 | 14.5 | 22.5 | 0.00 | 0.00 | 0.00 | 76 | 1005.7 |
| 20260830204536 | 27 | 176 | 16.1 | 27.4 | 0.00 | 0.00 | 0.00 | 75 | 1005.8 |
| 20260830203009 | 28 | 229 | 16.1 | 27.4 | 0.00 | 0.00 | 0.00 | 71 | 1005.8 |
| 20260830201508 | 28 | 233 | 20.9 | 32.2 | 0.00 | 0.00 | 0.00 | 70 | 1005.8 |
| 20260830200010 | 28 | 146 | 11.3 | 29.0 | 0.00 | 0.00 | 0.00 | 74 | 1005.8 |
| 20260830194505 | 28 | 170 | 14.5 | 27.4 | 0.00 | 0.00 | 0.00 | 75 | 1005.7 |
| 20260830193002 | 29 | 192 | 12.9 | 27.4 | 0.00 | 0.00 | 0.00 | 73 | 1005.8 |
| 20260830191502 | 29 | 169 | 12.9 | 24.1 | 0.00 | 0.00 | 0.00 | 71 | 1005.8 |
| 20260830190100 | 29 | 184 | 12.9 | 22.5 | 0.00 | 0.00 | 0.00 | 71 | 1005.9 |
| 20260830184559 | 28 | 191 | 17.7 | 25.7 | 0.00 | 0.00 | 0.00 | 71 | 1005.7 |
| 20260830183040 | 28 | 179 | 17.7 | 25.7 | 0.00 | 0.00 | 0.00 | 72 | 1005.9 |
| 20260830181538 | 28 | 219 | 14.5 | 27.4 | 0.00 | 0.00 | 0.00 | 71 | 1006.0 |
| 20260830180023 | 29 | 144 | 14.5 | 25.7 | 0.00 | 0.00 | 0.00 | 74 | 1005.9 |
| 20260830174521 | 28 | 188 | 8.0 | 17.7 | 0.00 | 0.00 | 0.00 | 76 | 1006.0 |
| 20260830173017 | 28 | 169 | 9.7 | 17.7 | 0.00 | 0.00 | 0.00 | 70 | 1005.9 |
| 20260830171516 | 29 | 169 | 9.7 | 24.1 | 0.00 | 0.00 | 0.00 | 73 | 1006.0 |
| 20260830170014 | 28 | 207 | 6.4 | 9.7 | 0.00 | 0.00 | 0.00 | 72 | 1006.2 |
| 20260830164533 | 27 | 219 | 1.6 | 14.5 | 0.00 | 0.00 | 0.00 | 75 | 1006.4 |
| 20260830163011 | 27 | 221 | 11.3 | 20.9 | 0.00 | 0.00 | 0.00 | 76 | 1006.9 |
| 20260830161511 | 27 | 185 | 6.4 | 27.4 | 0.00 | 0.00 | 0.00 | 79 | 1007.0 |
| 20260830160051 | 26 | 205 | 16.1 | 25.7 | 0.00 | 0.00 | 0.00 | 78 | 1007.1 |
| 20260830154554 | 26 | 203 | 16.1 | 24.1 | 0.00 | 0.00 | 0.00 | 79 | 1007.1 |
| 20260830153032 | 26 | 195 | 11.3 | 27.4 | 0.00 | 0.00 | 0.00 | 80 | 1006.5 |
| 20260830151534 | 25 | 198 | 14.5 | 24.1 | 0.00 | 0.00 | 0.00 | 81 | 1006.3 |